createdAt,value
2023-05-11T00:01:29.574Z,4.65
2023-05-11T00:03:57.791Z,5.90
2023-05-11T00:06:25.814Z,5.22
2023-05-11T00:08:53.723Z,5.18
2023-05-11T00:11:21.512Z,5.53
2023-05-11T00:13:49.425Z,5.60
2023-05-11T00:16:18.979Z,5.97
2023-05-11T00:18:46.842Z,5.28
2023-05-11T00:21:14.680Z,5.32
2023-05-11T00:23:42.421Z,5.82
2023-05-11T00:26:10.278Z,6.38
2023-05-11T00:28:38.679Z,5.80
2023-05-11T00:31:06.685Z,4.80
2023-05-11T00:33:35.955Z,4.60
2023-05-11T00:36:05.233Z,5.70
2023-05-11T00:38:32.966Z,5.65
2023-05-11T00:41:00.718Z,6.13
2023-05-11T00:43:28.538Z,5.22
2023-05-11T00:45:56.626Z,4.75
2023-05-11T00:48:24.554Z,4.90
2023-05-11T00:50:53.667Z,5.03
2023-05-11T00:53:21.749Z,5.35
2023-05-11T00:55:49.716Z,5.88
2023-05-11T00:58:17.775Z,5.50
2023-05-11T01:00:47.906Z,5.97
2023-05-11T01:03:19.051Z,4.95
2023-05-11T01:05:51.344Z,5.35
2023-05-11T01:08:28.772Z,5.68
2023-05-11T01:11:03.962Z,5.05
2023-05-11T01:13:35.935Z,5.47
2023-05-11T01:16:13.579Z,6.13
2023-05-11T01:18:47.885Z,5.30
2023-05-11T01:21:19.859Z,5.47
2023-05-11T01:24:21.322Z,5.90
2023-05-11T01:27:07.966Z,6.03
2023-05-11T01:30:03.235Z,5.60
2023-05-11T01:32:36.451Z,6.25
2023-05-11T01:35:09.611Z,6.07
2023-05-11T01:37:39.977Z,6.25
2023-05-11T01:40:14.710Z,6.88
2023-05-11T01:42:45.821Z,6.30
2023-05-11T01:45:15.537Z,6.53
2023-05-11T01:47:46.254Z,7.07
2023-05-11T01:50:16.833Z,6.70
2023-05-11T01:52:46.797Z,6.18
2023-05-11T01:55:18.163Z,6.82
2023-05-11T01:57:46.617Z,6.15
2023-05-11T02:00:17.897Z,5.55
2023-05-11T02:02:49.268Z,6.32
2023-05-11T02:05:25.099Z,6.15
2023-05-11T02:07:55.608Z,6.40
2023-05-11T02:10:27.392Z,6.13
2023-05-11T02:12:56.720Z,5.72
2023-05-11T02:15:27.097Z,4.78
2023-05-11T02:17:57.723Z,5.57
2023-05-11T02:20:26.885Z,6.03
2023-05-11T02:22:55.750Z,5.63
2023-05-11T02:25:24.541Z,5.35
2023-05-11T02:27:52.563Z,4.57
2023-05-11T02:30:20.744Z,5.28
2023-05-11T02:32:52.980Z,4.50
2023-05-11T02:35:26.526Z,4.03
2023-05-11T02:37:58.960Z,3.97
2023-05-11T02:40:33.101Z,4.28
2023-05-11T02:43:09.069Z,3.33
2023-05-11T02:45:40.123Z,4.32
2023-05-11T02:48:14.089Z,4.18
2023-05-11T02:50:44.439Z,3.72
2023-05-11T02:53:17.322Z,4.22
2023-05-11T02:55:47.134Z,4.80
2023-05-11T02:58:15.815Z,4.75
2023-05-11T03:00:48.296Z,4.78
2023-05-11T03:03:16.468Z,4.22
2023-05-11T03:05:45.817Z,4.93
2023-05-11T03:08:13.791Z,4.55
2023-05-11T03:10:42.641Z,4.65
2023-05-11T03:13:11.185Z,4.88
2023-05-11T03:15:39.912Z,5.40
2023-05-11T03:18:08.759Z,4.47
2023-05-11T03:20:38.674Z,5.95
2023-05-11T03:23:09.025Z,6.20
2023-05-11T03:25:37.773Z,7.18
2023-05-11T03:28:06.963Z,7.35
2023-05-11T03:30:36.540Z,8.35
2023-05-11T03:33:04.902Z,7.28
2023-05-11T03:35:35.873Z,9.05
2023-05-11T03:38:07.428Z,8.85
2023-05-11T03:40:35.444Z,8.82
2023-05-11T03:43:05.203Z,10.25
2023-05-11T03:45:35.434Z,10.85
2023-05-11T03:48:07.414Z,10.38
2023-05-11T03:50:35.613Z,9.57
2023-05-11T03:53:04.484Z,11.75
2023-05-11T03:55:34.105Z,13.02
2023-05-11T03:58:04.273Z,12.85
2023-05-11T04:00:32.624Z,13.60
2023-05-11T04:03:05.455Z,14.95
2023-05-11T04:05:36.098Z,16.08
2023-05-11T04:08:07.486Z,16.52
2023-05-11T04:10:38.272Z,15.43
2023-05-11T04:13:06.409Z,17.10
2023-05-11T04:15:35.406Z,15.98
2023-05-11T04:18:04.403Z,17.67
2023-05-11T04:20:33.368Z,16.45
2023-05-11T04:23:01.127Z,17.67
2023-05-11T04:25:28.957Z,17.73
2023-05-11T04:27:58.189Z,17.92
2023-05-11T04:30:26.455Z,17.13
2023-05-11T04:32:54.932Z,15.80
2023-05-11T04:35:23.753Z,15.77
2023-05-11T04:37:51.608Z,14.77
2023-05-11T04:40:20.050Z,13.02
2023-05-11T04:42:48.775Z,14.07
2023-05-11T04:45:21.550Z,14.38
2023-05-11T04:47:49.442Z,14.60
2023-05-11T04:50:18.057Z,14.27
2023-05-11T04:52:46.074Z,13.57
2023-05-11T04:55:13.889Z,13.30
2023-05-11T04:57:41.897Z,11.15
2023-05-11T05:00:10.981Z,11.35
2023-05-11T05:02:40.225Z,11.32
2023-05-11T05:05:09.151Z,9.68
2023-05-11T05:07:37.215Z,10.02
2023-05-11T05:10:08.942Z,10.30
2023-05-11T05:12:37.912Z,9.32
2023-05-11T05:15:07.127Z,9.70
2023-05-11T05:17:36.763Z,10.02
2023-05-11T05:20:08.733Z,10.68
2023-05-11T05:22:36.657Z,11.52
2023-05-11T05:25:05.158Z,13.70
2023-05-11T05:27:34.918Z,13.65
2023-05-11T05:30:07.829Z,14.13
2023-05-11T05:32:35.784Z,12.50
2023-05-11T05:35:04.310Z,12.00
2023-05-11T05:37:33.728Z,10.27
2023-05-11T05:40:01.786Z,9.98
2023-05-11T05:42:30.241Z,10.98
2023-05-11T05:44:58.155Z,9.63
2023-05-11T05:47:25.948Z,9.35
2023-05-11T05:49:53.846Z,9.95
2023-05-11T05:52:21.757Z,8.60
2023-05-11T05:54:51.973Z,10.10
2023-05-11T05:57:20.521Z,10.60
2023-05-11T05:59:48.801Z,9.82
2023-05-11T06:02:19.546Z,9.50
2023-05-11T06:04:47.518Z,8.45
2023-05-11T06:07:17.850Z,8.35
2023-05-11T06:09:45.675Z,8.45
2023-05-11T06:12:14.881Z,8.60
2023-05-11T06:14:46.613Z,9.60
2023-05-11T06:17:14.612Z,8.95
2023-05-11T06:19:42.590Z,8.45
2023-05-11T06:22:10.843Z,8.18
2023-05-11T06:24:39.014Z,8.13
2023-05-11T06:27:06.911Z,7.32
2023-05-11T06:29:36.664Z,7.40
2023-05-11T06:32:06.212Z,7.63
2023-05-11T06:34:35.506Z,7.93
2023-05-11T06:37:04.207Z,7.80
2023-05-11T06:39:32.060Z,8.07
2023-05-11T06:42:03.528Z,6.85
2023-05-11T06:44:32.817Z,7.75
2023-05-11T06:47:02.008Z,7.75
2023-05-11T06:49:30.034Z,8.55
2023-05-11T06:51:58.027Z,6.82
2023-05-11T06:54:25.884Z,8.02
2023-05-11T06:56:53.656Z,9.07
2023-05-11T06:59:21.481Z,9.25
2023-05-11T07:01:49.430Z,8.68
2023-05-11T07:04:18.639Z,9.10
2023-05-11T07:06:46.520Z,10.23
2023-05-11T07:09:14.434Z,9.00
2023-05-11T07:11:42.466Z,9.68
2023-05-11T07:14:10.440Z,9.18
2023-05-11T07:16:38.609Z,8.90
2023-05-11T07:19:08.448Z,8.88
2023-05-11T07:21:37.887Z,9.23
2023-05-11T07:24:06.156Z,9.05
2023-05-11T07:26:34.145Z,9.43
2023-05-11T07:29:02.285Z,7.95
2023-05-11T07:31:30.322Z,9.90
2023-05-11T07:33:58.234Z,9.00
2023-05-11T07:36:26.534Z,8.25
2023-05-11T07:38:55.774Z,9.10
2023-05-11T07:41:26.763Z,8.70
2023-05-11T07:43:54.772Z,9.55
2023-05-11T07:46:22.957Z,9.25
2023-05-11T07:48:57.457Z,9.75
2023-05-11T07:51:31.993Z,8.73
2023-05-11T07:54:01.284Z,9.23
2023-05-11T07:56:29.155Z,8.80
2023-05-11T07:58:56.920Z,7.60
2023-05-11T08:01:24.765Z,8.73
2023-05-11T08:03:52.608Z,8.70
2023-05-11T08:06:20.469Z,8.52
2023-05-11T08:08:48.473Z,8.52
2023-05-11T08:11:17.664Z,8.93
2023-05-11T08:13:45.534Z,8.85
2023-05-11T08:16:13.368Z,9.10
2023-05-11T08:18:41.329Z,9.48
2023-05-11T08:21:09.301Z,9.02
2023-05-11T08:23:37.757Z,9.32
2023-05-11T08:26:06.632Z,8.02
2023-05-11T08:28:35.846Z,8.10
2023-05-11T08:31:03.812Z,8.88
2023-05-11T08:33:38.131Z,9.07
2023-05-11T08:36:08.132Z,8.95
2023-05-11T08:38:36.449Z,8.65
2023-05-11T08:41:04.952Z,8.18
2023-05-11T08:43:36.037Z,7.72
2023-05-11T08:46:07.493Z,7.53
2023-05-11T08:48:36.236Z,7.82
2023-05-11T08:51:04.642Z,6.75
2023-05-11T08:53:33.746Z,7.05
2023-05-11T08:56:05.975Z,7.10
2023-05-11T08:58:37.654Z,8.10
2023-05-11T09:01:06.661Z,6.78
2023-05-11T09:03:37.721Z,6.60
2023-05-11T09:06:08.372Z,7.47
2023-05-11T09:08:39.531Z,7.55
2023-05-11T09:11:07.990Z,7.50
2023-05-11T09:13:37.704Z,7.88
2023-05-11T09:16:11.323Z,8.45
2023-05-11T09:18:48.738Z,9.27
2023-05-11T09:21:17.609Z,8.27
2023-05-11T09:23:45.662Z,10.55
2023-05-11T09:26:16.951Z,12.60
2023-05-11T09:29:07.585Z,8.63
2023-05-11T09:31:40.191Z,9.93
2023-05-11T09:34:19.421Z,8.82
2023-05-11T09:36:48.817Z,9.15
2023-05-11T09:42:18.830Z,9.90
2023-05-11T09:47:22.509Z,10.68
2023-05-11T09:49:51.242Z,9.20
2023-05-11T09:52:21.098Z,9.30
2023-05-11T09:54:51.609Z,9.13
2023-05-11T09:57:26.906Z,9.80
2023-05-11T09:59:57.751Z,10.38
2023-05-11T10:02:27.826Z,10.48
2023-05-11T10:04:57.901Z,10.10
2023-05-11T10:07:29.769Z,9.77
2023-05-11T10:09:59.301Z,10.18
2023-05-11T10:12:28.375Z,9.15
2023-05-11T10:15:03.812Z,9.77
2023-05-11T10:17:32.615Z,9.80
2023-05-11T10:20:01.841Z,9.27
2023-05-11T10:22:34.232Z,8.15
2023-05-11T10:25:05.980Z,10.88
2023-05-11T10:27:34.528Z,10.35
2023-05-11T10:30:05.043Z,9.90
2023-05-11T10:32:37.452Z,8.82
2023-05-11T10:35:07.881Z,9.60
2023-05-11T10:37:36.627Z,8.52
2023-05-11T10:40:05.592Z,7.68
2023-05-11T10:42:51.558Z,7.82
2023-05-11T10:45:24.070Z,7.72
2023-05-11T10:48:12.900Z,7.75
2023-05-11T10:51:01.767Z,8.00
2023-05-11T10:53:47.548Z,8.35
2023-05-11T10:56:27.488Z,7.75
2023-05-11T10:59:16.047Z,9.10
2023-05-11T11:01:46.417Z,8.63
2023-05-11T11:04:15.450Z,5.80
2023-05-11T11:06:44.953Z,7.25
2023-05-11T11:09:14.643Z,7.82
2023-05-11T11:11:46.046Z,6.30
2023-05-11T11:14:15.289Z,5.40
2023-05-11T11:17:21.943Z,5.18
2023-05-11T11:19:51.181Z,5.43
2023-05-11T11:22:46.811Z,5.30
2023-05-11T11:25:17.045Z,6.53
2023-05-11T11:28:00.108Z,5.88
2023-05-11T11:30:30.548Z,5.27
2023-05-11T11:33:32.367Z,5.22
2023-05-11T11:36:01.671Z,5.13
2023-05-11T11:38:32.421Z,3.88
2023-05-11T11:41:00.357Z,4.18
2023-05-11T11:43:30.288Z,3.03
2023-05-11T11:45:59.692Z,3.20
2023-05-11T11:48:32.251Z,2.75
2023-05-11T11:51:06.567Z,3.17
2023-05-11T11:54:05.031Z,2.50
2023-05-11T11:56:43.881Z,3.08
2023-05-11T11:59:15.587Z,2.72
2023-05-11T12:01:45.504Z,2.63
2023-05-11T12:04:41.994Z,3.40
2023-05-11T12:07:11.674Z,2.70
2023-05-11T12:09:41.345Z,3.35
2023-05-11T12:12:11.273Z,2.72
2023-05-11T12:14:42.766Z,2.45
2023-05-11T12:17:15.978Z,3.20
2023-05-11T12:19:45.467Z,2.30
2023-05-11T12:22:16.406Z,2.75
2023-05-11T12:24:45.029Z,2.60
2023-05-11T12:27:12.927Z,2.80
2023-05-11T12:29:41.406Z,3.13
2023-05-11T12:32:12.998Z,3.25
2023-05-11T12:34:40.951Z,2.92
2023-05-11T12:37:09.508Z,3.80
2023-05-11T12:39:39.638Z,3.67
2023-05-11T12:42:07.836Z,5.43
2023-05-11T12:44:36.362Z,4.60
2023-05-11T12:47:04.936Z,4.65
2023-05-11T12:49:33.108Z,5.22
2023-05-11T12:52:08.680Z,5.05
2023-05-11T12:54:40.091Z,4.80
2023-05-11T12:57:09.449Z,4.65
2023-05-11T12:59:38.998Z,4.72
2023-05-11T13:02:17.294Z,4.28
2023-05-11T13:04:46.694Z,4.10
2023-05-11T13:07:24.432Z,3.58
2023-05-11T13:09:58.934Z,5.18
2023-05-11T13:12:28.919Z,4.05
2023-05-11T13:15:08.092Z,3.42
2023-05-11T13:17:37.793Z,4.72
2023-05-11T13:20:19.884Z,4.00
2023-05-11T13:22:49.339Z,3.83
2023-05-11T13:25:21.021Z,3.97
2023-05-11T13:27:49.410Z,3.30
2023-05-11T13:30:17.505Z,3.20
2023-05-11T13:32:45.378Z,3.30
2023-05-11T13:35:13.430Z,3.25
2023-05-11T13:37:41.414Z,3.60
2023-05-11T13:40:10.672Z,3.45
2023-05-11T13:42:39.924Z,3.60
2023-05-11T13:45:09.227Z,3.80
2023-05-11T13:47:37.504Z,2.95
2023-05-11T13:50:06.407Z,3.20
2023-05-11T13:52:34.361Z,3.00
2023-05-11T13:55:03.911Z,4.03
2023-05-11T13:57:31.959Z,3.30
2023-05-11T14:00:01.214Z,4.28
2023-05-11T14:02:39.459Z,5.40
2023-05-11T14:05:08.649Z,4.05
2023-05-11T14:07:47.231Z,4.53
2023-05-11T14:10:19.883Z,4.45
2023-05-11T14:12:47.721Z,4.60
2023-05-11T14:15:17.340Z,4.68
2023-05-11T14:17:45.449Z,5.15
2023-05-11T14:20:14.566Z,4.22
2023-05-11T14:22:42.571Z,3.88
2023-05-11T14:25:10.707Z,4.07
2023-05-11T14:27:39.413Z,4.80
2023-05-11T14:30:08.988Z,4.53
2023-05-11T14:32:38.309Z,5.00
2023-05-11T14:35:07.100Z,5.70
2023-05-11T14:37:35.624Z,5.70
2023-05-11T14:40:03.824Z,5.20
2023-05-11T14:42:31.808Z,5.35
2023-05-11T14:44:59.809Z,6.22
2023-05-11T14:47:27.767Z,4.85
2023-05-11T14:49:56.906Z,5.63
2023-05-11T14:52:24.772Z,7.40
2023-05-11T14:54:52.886Z,5.28
2023-05-11T14:57:20.948Z,6.05
2023-05-11T14:59:58.840Z,6.10
2023-05-11T15:02:27.518Z,5.55
2023-05-11T15:04:56.933Z,5.20
2023-05-11T15:07:24.803Z,6.05
2023-05-11T15:09:52.804Z,6.03
2023-05-11T15:12:20.590Z,5.13
2023-05-11T15:14:48.574Z,5.63
2023-05-11T15:17:19.378Z,5.97
2023-05-11T15:19:47.350Z,5.57
2023-05-11T15:22:17.636Z,6.00
2023-05-11T15:24:45.642Z,5.45
2023-05-11T15:27:13.541Z,5.45
2023-05-11T15:29:41.471Z,5.47
2023-05-11T15:32:09.594Z,5.47
2023-05-11T15:34:47.491Z,6.15
2023-05-11T15:37:27.741Z,5.93
2023-05-11T15:39:55.569Z,6.13
2023-05-11T15:42:23.430Z,6.30
2023-05-11T15:44:51.315Z,6.70
2023-05-11T15:47:20.468Z,7.35
2023-05-11T15:49:48.380Z,7.75
2023-05-11T15:52:16.402Z,7.07
2023-05-11T15:54:45.923Z,6.93
2023-05-11T15:57:14.121Z,7.82
2023-05-11T15:59:42.322Z,7.97
2023-05-11T16:02:10.699Z,6.88
2023-05-11T16:04:38.880Z,8.07
2023-05-11T16:07:07.087Z,8.38
2023-05-11T16:09:34.985Z,9.30
2023-05-11T16:12:04.478Z,8.98
2023-05-11T16:14:32.415Z,8.88
2023-05-11T16:17:01.734Z,8.73
2023-05-11T16:19:30.074Z,7.40
2023-05-11T16:21:58.323Z,6.95
2023-05-11T16:24:26.933Z,5.88
2023-05-11T16:26:54.765Z,5.47
2023-05-11T16:29:25.777Z,6.07
2023-05-11T16:31:54.681Z,6.10
2023-05-11T16:34:22.556Z,7.22
2023-05-11T16:36:50.602Z,6.60
2023-05-11T16:39:18.609Z,6.43
2023-05-11T16:41:46.525Z,6.30
2023-05-11T16:44:14.539Z,7.72
2023-05-11T16:46:43.874Z,9.13
2023-05-11T16:49:11.862Z,7.35
2023-05-11T16:51:39.887Z,7.55
2023-05-11T16:54:08.120Z,7.43
2023-05-11T16:56:36.345Z,7.50
2023-05-11T16:59:04.400Z,7.45
2023-05-11T17:01:32.279Z,7.35
2023-05-11T17:04:01.477Z,7.53
2023-05-11T17:06:29.439Z,7.13
2023-05-11T17:08:57.192Z,7.25
2023-05-11T17:11:25.537Z,8.77
2023-05-11T17:13:53.311Z,8.57
2023-05-11T17:16:21.169Z,7.25
2023-05-11T17:18:49.180Z,7.55
2023-05-11T17:21:18.501Z,7.22
2023-05-11T17:23:46.273Z,7.47
2023-05-11T17:26:14.302Z,7.63
2023-05-11T17:28:42.559Z,9.20
2023-05-11T17:31:12.317Z,6.63
2023-05-11T17:33:41.214Z,8.27
2023-05-11T17:36:10.303Z,7.45
2023-05-11T17:38:39.695Z,7.97
2023-05-11T17:41:08.149Z,6.35
2023-05-11T17:43:37.847Z,5.78
2023-05-11T17:46:06.024Z,6.93
2023-05-11T17:48:34.226Z,6.75
2023-05-11T17:51:02.447Z,7.80
2023-05-11T17:53:30.231Z,6.50
2023-05-11T17:56:01.126Z,6.40
2023-05-11T17:58:29.076Z,7.60
2023-05-11T18:00:56.838Z,7.50
2023-05-11T18:03:24.813Z,8.25
2023-05-11T18:05:53.323Z,8.25
2023-05-11T18:08:21.220Z,7.57
2023-05-11T18:10:49.122Z,6.90
2023-05-11T18:13:18.462Z,7.60
2023-05-11T18:15:46.402Z,7.53
2023-05-11T18:18:14.501Z,6.93
2023-05-11T18:20:45.307Z,6.90
2023-05-11T18:23:13.812Z,7.30
2023-05-11T18:25:43.828Z,7.47
2023-05-11T18:28:11.778Z,8.65
2023-05-11T18:30:41.005Z,8.80
2023-05-11T18:33:09.059Z,7.93
2023-05-11T18:35:39.028Z,7.50
2023-05-11T18:38:07.468Z,7.13
2023-05-11T18:40:36.109Z,6.63
2023-05-11T18:43:04.256Z,6.47
2023-05-11T18:45:33.935Z,5.82
2023-05-11T18:48:03.674Z,5.03
2023-05-11T18:50:31.595Z,4.93
2023-05-11T18:52:59.483Z,5.00
2023-05-11T18:55:30.950Z,5.10
2023-05-11T18:58:00.328Z,4.90
2023-05-11T19:00:28.445Z,6.15
2023-05-11T19:02:56.645Z,6.30
2023-05-11T19:05:25.900Z,5.70
2023-05-11T19:07:53.854Z,5.68
2023-05-11T19:10:23.921Z,5.35
2023-05-11T19:12:52.049Z,5.10
2023-05-11T19:15:20.119Z,5.35
2023-05-11T19:17:47.977Z,4.25
2023-05-11T19:20:16.021Z,4.50
2023-05-11T19:22:46.009Z,4.28
2023-05-11T19:25:14.060Z,4.40
2023-05-11T19:27:41.828Z,5.68
2023-05-11T19:30:10.643Z,4.50
2023-05-11T19:32:39.229Z,4.45
2023-05-11T19:35:07.726Z,5.85
2023-05-11T19:37:35.589Z,4.78
2023-05-11T19:40:43.092Z,4.63
2023-05-11T19:42:53.745Z,5.43
2023-05-11T19:45:21.866Z,5.03
2023-05-11T19:47:49.705Z,4.60
2023-05-11T19:50:19.808Z,4.60
2023-05-11T19:52:48.915Z,5.43
2023-05-11T19:55:18.195Z,4.90
2023-05-11T19:57:46.092Z,5.03
2023-05-11T20:00:14.342Z,5.43
2023-05-11T20:02:42.320Z,5.78
2023-05-11T20:05:10.866Z,5.68
2023-05-11T20:07:38.855Z,6.55
2023-05-11T20:10:08.823Z,8.45
2023-05-11T20:12:40.049Z,8.30
2023-05-11T20:15:09.907Z,7.80
2023-05-11T20:17:39.386Z,8.18
2023-05-11T20:20:08.608Z,8.88
2023-05-11T20:22:37.328Z,8.82
2023-05-11T20:25:09.605Z,9.13
2023-05-11T20:27:47.089Z,8.52
2023-05-11T20:30:15.560Z,10.18
2023-05-11T20:34:06.767Z,9.82
2023-05-11T20:35:31.526Z,9.82
2023-05-11T20:37:59.361Z,11.35
2023-05-11T20:40:27.328Z,10.80
2023-05-11T20:42:56.694Z,10.88
2023-05-11T20:45:24.803Z,9.85
2023-05-11T20:47:52.817Z,10.50
2023-05-11T20:50:21.635Z,10.18
2023-05-11T20:52:49.518Z,9.95
2023-05-11T20:55:17.678Z,10.00
2023-05-11T20:57:45.834Z,10.35
2023-05-11T21:00:17.679Z,9.30
2023-05-11T21:02:46.839Z,8.77
2023-05-11T21:05:14.981Z,10.05
2023-05-11T21:07:43.773Z,8.77
2023-05-11T21:10:12.791Z,9.35
2023-05-11T21:12:40.760Z,8.95
2023-05-11T21:15:09.611Z,8.70
2023-05-11T21:17:41.292Z,8.25
2023-05-11T21:20:10.307Z,8.55
2023-05-11T21:22:38.414Z,9.05
2023-05-11T21:25:07.528Z,8.05
2023-05-11T21:27:35.494Z,8.00
2023-05-11T21:30:03.879Z,8.73
2023-05-11T21:32:32.461Z,8.88
2023-05-11T21:35:01.792Z,9.85
2023-05-11T21:37:33.511Z,9.15
2023-05-11T21:40:01.452Z,9.27
2023-05-11T21:42:34.234Z,9.65
2023-05-11T21:45:02.138Z,8.55
2023-05-11T21:47:33.159Z,8.50
2023-05-11T21:50:02.570Z,8.25
2023-05-11T21:52:30.693Z,8.82
2023-05-11T21:54:58.466Z,8.20
2023-05-11T21:57:26.392Z,9.07
2023-05-11T21:59:54.298Z,8.90
2023-05-11T22:02:22.208Z,9.02
2023-05-11T22:04:50.645Z,8.82
2023-05-11T22:07:19.905Z,8.80
2023-05-11T22:09:47.586Z,8.82
2023-05-11T22:12:15.438Z,10.40
2023-05-11T22:14:43.187Z,10.25
2023-05-11T22:17:11.773Z,9.90
2023-05-11T22:19:40.197Z,9.82
2023-05-11T22:22:08.136Z,10.50
2023-05-11T22:24:37.783Z,11.82
2023-05-11T22:27:05.587Z,11.27
2023-05-11T22:29:33.386Z,10.68
2023-05-11T22:32:01.263Z,11.00
2023-05-11T22:34:29.141Z,10.77
2023-05-11T22:36:56.942Z,9.82
2023-05-11T22:39:24.783Z,10.40
2023-05-11T22:41:54.409Z,9.77
2023-05-11T22:44:22.362Z,11.32
2023-05-11T22:46:50.723Z,10.80
2023-05-11T22:49:18.607Z,11.98
2023-05-11T22:51:46.356Z,11.70
2023-05-11T22:54:15.933Z,10.70
2023-05-11T22:56:44.054Z,10.32
2023-05-11T22:59:13.625Z,10.25
2023-05-11T23:01:41.584Z,9.73
2023-05-11T23:04:09.648Z,8.45
2023-05-11T23:06:38.305Z,8.18
2023-05-11T23:09:06.197Z,7.50
2023-05-11T23:11:34.010Z,6.47
2023-05-11T23:14:03.617Z,5.60
2023-05-11T23:16:32.788Z,6.22
2023-05-11T23:19:02.589Z,6.55
2023-05-11T23:21:30.416Z,6.40
2023-05-11T23:23:58.161Z,6.93
2023-05-11T23:26:26.030Z,6.95
2023-05-11T23:28:53.849Z,8.55
2023-05-11T23:31:21.927Z,6.65
2023-05-11T23:33:51.336Z,6.47
2023-05-11T23:36:19.198Z,7.82
2023-05-11T23:38:46.949Z,9.15
2023-05-11T23:41:14.805Z,8.80
2023-05-11T23:43:42.860Z,9.55
2023-05-11T23:46:12.775Z,8.60
2023-05-11T23:48:43.705Z,9.63
2023-05-11T23:51:13.213Z,12.27
2023-05-11T23:53:41.281Z,14.88
2023-05-11T23:56:09.412Z,14.77
2023-05-11T23:58:37.233Z,15.48
